Time;durP1;ratioP1;P1;durP2;ratioP2;P2;SDS_P1;SDS_P2;PMS_P1;PMS_P2;Temp;Humidity;BMP_temperature;BMP_pressure;BME280_temperature;BME280_humidity;BME280_pressure;Samples;Min_cycle;Max_cycle;Signal;HPM_P1;HPM_P2
2023/04/22 00:03:00;;;;;;;12.70;9.00;;;;;;;;;;6284656;28;20193;-63
2023/04/22 00:06:01;;;;;;;9.87;8.87;;;;;;;;;;6311265;28;20192;-63
2023/04/22 00:09:02;;;;;;;9.70;8.70;;;;;;;;;;6299765;28;20213;-63
2023/04/22 00:12:03;;;;;;;9.50;8.57;;;;;;;;;;6329058;28;20295;-63
2023/04/22 00:15:05;;;;;;;10.03;9.03;;;;;;;;;;6316709;28;20184;-63
2023/04/22 00:18:12;;;;;;;9.67;8.70;;;;;;;;;;6300439;28;20186;-63
2023/04/22 00:21:13;;;;;;;10.33;9.20;;;;;;;;;;6289594;28;20201;-63
2023/04/22 00:24:14;;;;;;;9.70;8.80;;;;;;;;;;6301447;28;20196;-63
2023/04/22 00:27:15;;;;;;;9.80;8.63;;;;;;;;;;6313153;28;20185;-63
2023/04/22 00:30:16;;;;;;;10.83;9.73;;;;;;;;;;6305341;28;20205;-63
2023/04/22 00:33:17;;;;;;;9.70;8.80;;;;;;;;;;6283649;28;20204;-63
2023/04/22 00:36:18;;;;;;;9.53;8.50;;;;;;;;;;6318098;28;20195;-63
2023/04/22 00:39:19;;;;;;;11.57;8.63;;;;;;;;;;6300465;28;20303;-63
2023/04/22 00:42:21;;;;;;;9.67;8.67;;;;;;;;;;6318635;28;20314;-63
2023/04/22 00:45:22;;;;;;;10.00;8.37;;;;;;;;;;6310591;28;20279;-63
2023/04/22 00:48:25;;;;;;;11.00;8.70;;;;;;;;;;6298242;28;20197;-63
2023/04/22 00:51:26;;;;;;;10.00;8.83;;;;;;;;;;6301516;28;20224;-63
2023/04/22 00:54:28;;;;;;;9.87;8.10;;;;;;;;;;6314099;28;20197;-63
2023/04/22 00:57:33;;;;;;;10.33;9.10;;;;;;;;;;6292306;28;20261;-63
2023/04/22 01:00:34;;;;;;;13.50;9.80;;;;;;;;;;6298985;28;20192;-63
2023/04/22 01:03:37;;;;;;;10.50;9.20;;;;;;;;;;6314581;28;20184;-63
2023/04/22 01:06:40;;;;;;;10.13;8.70;;;;;;;;;;6314528;28;20256;-63
2023/04/22 01:09:41;;;;;;;10.50;9.40;;;;;;;;;;6321812;28;20193;-63
2023/04/22 01:12:42;;;;;;;9.83;8.57;;;;;;;;;;6301225;28;20213;-63
2023/04/22 01:15:43;;;;;;;9.07;7.97;;;;;;;;;;6304986;28;20191;-63
2023/04/22 01:18:44;;;;;;;10.63;8.90;;;;;;;;;;6281395;28;20189;-63
2023/04/22 01:21:46;;;;;;;9.80;8.83;;;;;;;;;;6313984;28;20216;-63
2023/04/22 01:24:48;;;;;;;9.97;8.97;;;;;;;;;;6308734;28;20242;-63
2023/04/22 01:27:49;;;;;;;10.53;9.00;;;;;;;;;;6305441;28;20194;-63
2023/04/22 01:30:51;;;;;;;11.67;9.13;;;;;;;;;;6297970;28;20243;-63
2023/04/22 01:33:52;;;;;;;9.70;8.70;;;;;;;;;;6286780;28;20389;-63
2023/04/22 01:36:54;;;;;;;10.13;8.70;;;;;;;;;;6292835;28;20197;-63
2023/04/22 01:39:56;;;;;;;9.60;8.27;;;;;;;;;;6311351;28;20246;-63
2023/04/22 01:43:01;;;;;;;11.63;8.77;;;;;;;;;;6306363;28;20235;-63
2023/04/22 01:46:02;;;;;;;10.63;8.80;;;;;;;;;;6296587;28;20193;-63
2023/04/22 01:49:03;;;;;;;9.73;8.70;;;;;;;;;;6315295;28;20193;-63
2023/04/22 01:52:05;;;;;;;9.97;8.93;;;;;;;;;;6302730;28;20311;-63
2023/04/22 01:55:06;;;;;;;10.57;9.10;;;;;;;;;;6294550;28;20200;-63
2023/04/22 01:58:07;;;;;;;11.70;8.93;;;;;;;;;;6318700;28;20204;-63
2023/04/22 02:01:09;;;;;;;10.23;8.47;;;;;;;;;;6305854;28;20200;-63
2023/04/22 02:04:10;;;;;;;10.47;8.53;;;;;;;;;;6309067;28;20199;-63
2023/04/22 02:07:11;;;;;;;9.27;8.40;;;;;;;;;;6309643;28;20253;-63
2023/04/22 02:10:12;;;;;;;10.13;8.50;;;;;;;;;;6294460;28;20219;-63
2023/04/22 02:13:13;;;;;;;11.40;8.60;;;;;;;;;;6307319;28;20191;-63
2023/04/22 02:16:15;;;;;;;12.73;9.00;;;;;;;;;;6286840;28;20189;-63
2023/04/22 02:19:16;;;;;;;9.50;8.47;;;;;;;;;;6291002;28;21123;-63
2023/04/22 02:22:17;;;;;;;10.70;8.83;;;;;;;;;;6315962;28;20193;-63
2023/04/22 02:25:18;;;;;;;9.87;8.83;;;;;;;;;;6273499;28;20266;-63
2023/04/22 02:28:19;;;;;;;11.60;9.33;;;;;;;;;;6310351;28;20200;-63
2023/04/22 02:31:20;;;;;;;12.10;9.07;;;;;;;;;;6272185;28;20202;-63
2023/04/22 02:34:21;;;;;;;10.20;9.10;;;;;;;;;;6309307;28;20236;-63
2023/04/22 02:37:22;;;;;;;10.00;8.17;;;;;;;;;;6287748;28;20190;-63
2023/04/22 02:40:24;;;;;;;10.23;8.37;;;;;;;;;;6306771;28;20245;-63
2023/04/22 02:43:25;;;;;;;9.30;8.30;;;;;;;;;;6324240;28;20180;-63
2023/04/22 02:46:26;;;;;;;10.47;8.93;;;;;;;;;;6283867;28;20197;-63
2023/04/22 02:49:27;;;;;;;11.13;9.07;;;;;;;;;;6296485;28;20200;-63
2023/04/22 02:52:28;;;;;;;12.50;9.33;;;;;;;;;;6311663;28;20211;-64
2023/04/22 02:55:29;;;;;;;11.63;9.03;;;;;;;;;;6298542;28;20185;-63
2023/04/22 02:58:30;;;;;;;10.43;8.13;;;;;;;;;;6301582;28;20265;-63
2023/04/22 03:01:31;;;;;;;8.97;8.07;;;;;;;;;;6298500;28;20198;-63
2023/04/22 03:04:32;;;;;;;8.90;8.00;;;;;;;;;;6290883;28;20193;-63
2023/04/22 03:07:33;;;;;;;12.40;8.33;;;;;;;;;;6287956;28;20189;-63
2023/04/22 03:10:34;;;;;;;9.10;8.20;;;;;;;;;;6288802;28;20209;-63
2023/04/22 03:13:35;;;;;;;13.10;8.80;;;;;;;;;;6316140;28;20211;-63
2023/04/22 03:16:36;;;;;;;10.40;8.50;;;;;;;;;;6273140;28;20189;-63
2023/04/22 03:19:37;;;;;;;9.77;8.77;;;;;;;;;;6297767;28;20207;-63
2023/04/22 03:22:38;;;;;;;9.80;8.80;;;;;;;;;;6301059;28;20192;-63
2023/04/22 03:25:40;;;;;;;9.40;8.40;;;;;;;;;;6312871;28;20202;-63
2023/04/22 03:28:41;;;;;;;11.23;8.97;;;;;;;;;;6298089;28;20193;-62
2023/04/22 03:31:42;;;;;;;10.10;8.83;;;;;;;;;;6303807;28;20213;-62
2023/04/22 03:34:43;;;;;;;11.33;9.23;;;;;;;;;;6303239;28;20233;-62
2023/04/22 03:37:44;;;;;;;11.43;9.10;;;;;;;;;;6283137;28;20270;-62
2023/04/22 03:40:45;;;;;;;9.87;8.87;;;;;;;;;;6289363;28;20318;-62
2023/04/22 03:43:46;;;;;;;10.50;8.50;;;;;;;;;;6295869;28;20200;-62
2023/04/22 03:46:47;;;;;;;13.47;9.17;;;;;;;;;;6309827;28;20189;-62
2023/04/22 03:49:48;;;;;;;9.87;8.80;;;;;;;;;;6297609;28;20296;-61
2023/04/22 03:52:49;;;;;;;10.07;9.07;;;;;;;;;;6324710;28;20209;-61
2023/04/22 03:55:50;;;;;;;10.80;9.37;;;;;;;;;;6286967;28;20192;-61
2023/04/22 03:58:51;;;;;;;10.63;8.70;;;;;;;;;;6310771;28;20196;-61
2023/04/22 04:01:52;;;;;;;10.93;9.07;;;;;;;;;;6312314;28;20185;-61
2023/04/22 04:04:54;;;;;;;13.10;10.07;;;;;;;;;;6282432;28;20191;-62
2023/04/22 04:07:55;;;;;;;12.53;8.80;;;;;;;;;;6278548;28;20189;-62
2023/04/22 04:10:56;;;;;;;13.60;10.03;;;;;;;;;;6290819;28;20205;-65
2023/04/22 04:13:57;;;;;;;11.63;8.97;;;;;;;;;;6297455;28;20200;-65
2023/04/22 04:16:58;;;;;;;16.73;10.13;;;;;;;;;;6313973;28;20192;-64
2023/04/22 04:19:59;;;;;;;11.00;9.10;;;;;;;;;;6293394;28;20307;-65
2023/04/22 04:23:00;;;;;;;10.73;9.20;;;;;;;;;;6319074;28;20200;-65
2023/04/22 04:26:02;;;;;;;10.23;8.73;;;;;;;;;;6283863;28;20260;-64
2023/04/22 04:29:04;;;;;;;11.97;9.03;;;;;;;;;;6300219;28;20210;-64
2023/04/22 04:32:07;;;;;;;12.57;10.50;;;;;;;;;;6319599;28;20208;-63
2023/04/22 04:35:08;;;;;;;10.67;9.10;;;;;;;;;;6302042;28;20236;-63
2023/04/22 04:38:11;;;;;;;11.33;10.13;;;;;;;;;;6281488;28;20220;-63
2023/04/22 04:41:13;;;;;;;10.90;9.53;;;;;;;;;;6292548;28;20342;-63
2023/04/22 04:44:14;;;;;;;10.97;9.87;;;;;;;;;;6282539;28;20196;-63
2023/04/22 04:47:15;;;;;;;11.47;9.17;;;;;;;;;;6298264;28;20280;-63
2023/04/22 04:50:17;;;;;;;9.90;8.90;;;;;;;;;;6299551;28;20197;-63
2023/04/22 04:53:18;;;;;;;12.33;9.53;;;;;;;;;;6300034;28;20197;-63
2023/04/22 04:56:19;;;;;;;9.37;8.43;;;;;;;;;;6291179;28;20583;-63
2023/04/22 04:59:20;;;;;;;11.63;9.63;;;;;;;;;;6307918;28;20194;-62
2023/04/22 05:02:21;;;;;;;11.13;9.57;;;;;;;;;;6311783;28;20196;-65
2023/04/22 05:05:22;;;;;;;12.50;8.67;;;;;;;;;;6311574;28;20234;-63
2023/04/22 05:08:23;;;;;;;12.50;11.17;;;;;;;;;;6295475;28;20192;-67
2023/04/22 05:11:24;;;;;;;10.43;9.17;;;;;;;;;;6296879;28;20240;-64
2023/04/22 05:14:25;;;;;;;11.70;9.80;;;;;;;;;;6312947;28;20189;-64
2023/04/22 05:17:26;;;;;;;12.23;10.30;;;;;;;;;;6295111;28;20209;-63
2023/04/22 05:20:27;;;;;;;11.73;9.87;;;;;;;;;;6281906;28;20196;-64
2023/04/22 05:23:29;;;;;;;10.53;9.53;;;;;;;;;;6276733;28;20182;-64
2023/04/22 05:26:30;;;;;;;14.37;9.93;;;;;;;;;;6308729;28;20198;-64
2023/04/22 05:29:31;;;;;;;12.20;9.87;;;;;;;;;;6289267;28;20198;-64
2023/04/22 05:32:32;;;;;;;10.37;9.20;;;;;;;;;;6290266;28;20219;-64
2023/04/22 05:35:34;;;;;;;12.23;9.87;;;;;;;;;;6316094;28;20323;-63
2023/04/22 05:38:35;;;;;;;13.30;10.67;;;;;;;;;;6320545;28;20181;-63
2023/04/22 05:41:36;;;;;;;10.70;9.67;;;;;;;;;;6285249;28;20200;-63
2023/04/22 05:44:37;;;;;;;13.00;10.43;;;;;;;;;;6282103;28;20200;-63
2023/04/22 05:47:38;;;;;;;11.80;10.00;;;;;;;;;;6279935;28;20280;-63
2023/04/22 05:50:39;;;;;;;12.27;10.13;;;;;;;;;;6308658;28;20220;-63
2023/04/22 05:53:40;;;;;;;13.47;10.73;;;;;;;;;;6297484;28;20189;-63
2023/04/22 05:56:41;;;;;;;13.07;11.30;;;;;;;;;;6298840;28;20193;-63
2023/04/22 05:59:42;;;;;;;13.63;10.13;;;;;;;;;;6293866;28;20189;-63
2023/04/22 06:02:43;;;;;;;13.70;11.73;;;;;;;;;;6299921;28;20204;-63
2023/04/22 06:05:44;;;;;;;13.13;10.83;;;;;;;;;;6286354;28;20285;-64
2023/04/22 06:08:45;;;;;;;12.53;10.60;;;;;;;;;;6287912;28;20193;-64
2023/04/22 06:11:47;;;;;;;14.63;10.23;;;;;;;;;;6283804;28;20243;-64
2023/04/22 06:14:48;;;;;;;14.57;11.93;;;;;;;;;;6325507;28;20192;-62
2023/04/22 06:17:49;;;;;;;11.73;10.20;;;;;;;;;;6291151;28;20189;-62
2023/04/22 06:20:51;;;;;;;12.47;11.17;;;;;;;;;;6324457;28;20189;-62
2023/04/22 06:23:52;;;;;;;11.20;10.07;;;;;;;;;;6313453;28;20189;-64
2023/04/22 06:26:53;;;;;;;11.70;10.50;;;;;;;;;;6299754;28;20209;-64
2023/04/22 06:29:54;;;;;;;12.30;10.37;;;;;;;;;;6305147;28;20287;-64
2023/04/22 06:32:55;;;;;;;11.50;10.30;;;;;;;;;;6282287;28;20232;-63
2023/04/22 06:35:56;;;;;;;14.20;10.93;;;;;;;;;;6308821;28;20225;-63
2023/04/22 06:38:57;;;;;;;11.13;10.03;;;;;;;;;;6291119;28;20200;-65
2023/04/22 06:41:58;;;;;;;13.87;10.77;;;;;;;;;;6302138;28;20290;-63
2023/04/22 06:44:59;;;;;;;10.83;9.77;;;;;;;;;;6278895;28;20242;-63
2023/04/22 06:48:00;;;;;;;14.23;10.70;;;;;;;;;;6306424;28;20197;-63
2023/04/22 06:51:01;;;;;;;13.17;10.20;;;;;;;;;;6293630;28;20254;-63
2023/04/22 06:54:02;;;;;;;12.67;11.13;;;;;;;;;;6296468;28;20218;-63
2023/04/22 06:57:03;;;;;;;12.30;10.60;;;;;;;;;;6295093;28;20274;-63
2023/04/22 07:00:08;;;;;;;14.93;12.40;;;;;;;;;;6274987;28;20284;-63
2023/04/22 07:03:09;;;;;;;16.17;12.27;;;;;;;;;;6281162;28;20205;-63
2023/04/22 07:06:10;;;;;;;13.13;11.23;;;;;;;;;;6298295;28;20189;-63
2023/04/22 07:09:11;;;;;;;11.97;10.23;;;;;;;;;;6281499;28;20215;-63
2023/04/22 07:12:12;;;;;;;10.73;9.73;;;;;;;;;;6302873;28;20209;-63
2023/04/22 07:15:13;;;;;;;9.30;8.40;;;;;;;;;;6321206;28;20228;-63
2023/04/22 07:18:14;;;;;;;10.47;9.33;;;;;;;;;;6301799;28;20189;-63
2023/04/22 07:21:15;;;;;;;11.37;9.00;;;;;;;;;;6295379;28;20193;-63
2023/04/22 07:24:16;;;;;;;11.03;9.50;;;;;;;;;;6310791;28;20261;-63
2023/04/22 07:27:17;;;;;;;11.23;9.57;;;;;;;;;;6277832;28;20190;-63
2023/04/22 07:30:18;;;;;;;9.43;8.40;;;;;;;;;;6277040;28;20289;-63
2023/04/22 07:33:20;;;;;;;9.50;8.20;;;;;;;;;;6301853;28;20212;-63
2023/04/22 07:36:21;;;;;;;9.60;8.27;;;;;;;;;;6305683;28;20185;-63
2023/04/22 07:39:22;;;;;;;7.47;6.67;;;;;;;;;;6298463;28;20192;-63
2023/04/22 07:42:23;;;;;;;8.63;6.53;;;;;;;;;;6310061;28;20186;-63
2023/04/22 07:45:24;;;;;;;7.23;6.63;;;;;;;;;;6287977;28;20194;-63
2023/04/22 07:48:26;;;;;;;8.30;6.90;;;;;;;;;;6313656;28;20193;-63
2023/04/22 07:51:27;;;;;;;9.03;6.43;;;;;;;;;;6292188;28;20213;-63
2023/04/22 07:54:28;;;;;;;6.83;6.13;;;;;;;;;;6301887;28;20436;-63
2023/04/22 07:57:29;;;;;;;7.37;6.67;;;;;;;;;;6323152;28;20216;-63
2023/04/22 08:00:30;;;;;;;6.57;5.97;;;;;;;;;;6277063;28;20193;-63
2023/04/22 08:03:31;;;;;;;6.50;5.90;;;;;;;;;;6316348;28;20184;-64
2023/04/22 08:06:32;;;;;;;6.87;6.27;;;;;;;;;;6297888;28;20211;-64
2023/04/22 08:09:33;;;;;;;6.37;5.67;;;;;;;;;;6301424;28;20197;-64
2023/04/22 08:12:34;;;;;;;6.90;6.20;;;8.60;99.90;;;;;;6279935;28;20246;-64
2023/04/22 08:15:35;;;;;;;9.00;6.13;;;11.20;77.60;;;;;;6288485;28;20188;-64
2023/04/22 08:18:35;;;;;;;6.90;5.60;;;11.50;75.70;;;;;;6293054;28;20254;-64
2023/04/22 08:21:37;;;;;;;7.17;5.93;;;11.50;77.90;;;;;;6298309;28;20205;-64
2023/04/22 08:24:37;;;;;;;6.50;5.90;;;11.50;78.30;;;;;;6271074;28;20199;-64
2023/04/22 08:27:38;;;;;;;8.00;5.93;;;11.40;80.00;;;;;;6275010;28;20201;-63
2023/04/22 08:30:39;;;;;;;6.83;6.13;;;11.40;78.90;;;;;;6270063;28;20243;-64
2023/04/22 08:33:40;;;;;;;6.90;6.20;;;11.70;74.60;;;;;;6297774;28;20302;-63
2023/04/22 08:36:41;;;;;;;6.13;5.37;;;11.80;73.80;;;;;;6281607;28;20215;-63
2023/04/22 08:39:42;;;;;;;6.23;5.53;;;11.90;73.60;;;;;;6295457;28;20188;-64
2023/04/22 08:42:44;;;;;;;5.47;4.97;;;12.00;73.70;;;;;;6292543;28;20192;-64
2023/04/22 08:45:44;;;;;;;6.10;5.60;;;11.90;73.80;;;;;;6281373;28;20190;-64
2023/04/22 08:48:47;;;;;;;7.20;5.70;;;12.10;72.70;;;;;;6279926;28;20255;-64
2023/04/22 08:51:49;;;;;;;6.47;5.33;;;12.20;71.20;;;;;;6284536;28;20234;-64
2023/04/22 08:54:51;;;;;;;7.50;5.73;;;12.40;70.80;;;;;;6272966;28;20193;-64
2023/04/22 08:57:53;;;;;;;6.20;5.60;;;12.70;67.50;;;;;;6279505;28;20189;-64
2023/04/22 09:00:55;;;;;;;9.13;6.83;;;12.90;68.60;;;;;;6296038;28;20192;-64
2023/04/22 09:03:59;;;;;;;6.37;5.20;;;12.80;69.30;;;;;;6300516;28;20214;-64
2023/04/22 09:07:01;;;;;;;5.83;5.23;;;13.10;66.70;;;;;;6292355;28;20186;-64
2023/04/22 09:10:03;;;;;;;6.27;5.23;;;13.10;65.90;;;;;;6296518;28;20267;-64
2023/04/22 09:13:05;;;;;;;5.93;4.80;;;13.30;66.30;;;;;;6292154;28;20216;-64
2023/04/22 09:16:06;;;;;;;6.07;5.17;;;13.40;67.60;;;;;;6308057;28;20205;-64
2023/04/22 09:19:10;;;;;;;7.17;5.50;;;13.70;65.90;;;;;;6288884;28;20184;-62
2023/04/22 09:22:14;;;;;;;6.63;5.10;;;14.20;65.50;;;;;;6295471;28;20204;-61
2023/04/22 09:25:20;;;;;;;6.00;5.00;;;14.60;63.10;;;;;;6290214;28;20190;-61
2023/04/22 09:28:21;;;;;;;5.63;4.90;;;14.90;61.30;;;;;;6300897;28;20242;-61
2023/04/22 09:31:22;;;;;;;7.30;4.67;;;15.00;59.00;;;;;;6277977;28;20268;-61
2023/04/22 09:34:22;;;;;;;4.10;3.80;;;15.20;61.00;;;;;;6284968;28;20229;-61
2023/04/22 09:37:24;;;;;;;4.50;4.10;;;15.20;60.30;;;;;;6283332;28;20239;-62
2023/04/22 09:40:26;;;;;;;4.47;4.07;;;15.20;60.50;;;;;;6270088;28;20186;-61
2023/04/22 09:43:31;;;;;;;8.80;6.27;;;15.20;59.50;;;;;;6278047;28;20269;-61
2023/04/22 09:46:33;;;;;;;6.33;5.70;;;15.00;62.30;;;;;;6294626;28;20190;-61
2023/04/22 09:49:37;;;;;;;6.03;5.53;;;15.00;63.00;;;;;;6263143;28;20195;-62
2023/04/22 09:52:38;;;;;;;5.83;5.33;;;15.00;63.40;;;;;;6297293;28;20254;-61
2023/04/22 09:55:41;;;;;;;6.40;4.90;;;15.20;62.30;;;;;;6286142;28;20213;-62
2023/04/22 09:58:42;;;;;;;9.83;7.07;;;15.20;61.90;;;;;;6292305;28;20182;-61
2023/04/22 10:01:43;;;;;;;6.67;5.60;;;15.10;62.50;;;;;;6304072;28;20219;-61
2023/04/22 10:04:44;;;;;;;5.10;4.60;;;15.20;62.90;;;;;;6271552;28;20193;-61
2023/04/22 10:07:45;;;;;;;5.07;4.57;;;15.20;63.60;;;;;;6260841;28;20193;-61
2023/04/22 10:10:46;;;;;;;6.13;4.97;;;15.30;62.20;;;;;;6258298;28;20189;-62
2023/04/22 10:13:46;;;;;;;6.10;5.50;;;15.30;64.10;;;;;;6278921;28;20192;-62
2023/04/22 10:16:49;;;;;;;6.37;5.30;;;15.40;59.90;;;;;;6259989;28;20206;-62
2023/04/22 10:19:50;;;;;;;5.27;4.77;;;15.50;62.00;;;;;;6294582;28;20178;-62
2023/04/22 10:22:53;;;;;;;4.47;4.07;;;15.60;61.30;;;;;;6297881;28;20244;-61
2023/04/22 10:25:54;;;;;;;5.40;4.60;;;15.60;62.70;;;;;;6295652;28;20181;-62
2023/04/22 10:28:56;;;;;;;6.93;4.70;;;15.70;62.00;;;;;;6280339;28;20193;-62
2023/04/22 10:32:16;;;;;;;5.87;4.47;;;15.90;55.70;;;;;;6273812;28;20216;-61
2023/04/22 10:35:26;;;;;;;5.40;4.90;;;16.00;56.00;;;;;;6295472;28;20218;-62
2023/04/22 10:38:28;;;;;;;6.07;4.77;;;;;;;;;;6295156;28;20276;-62
2023/04/22 10:41:31;;;;;;;5.13;4.50;;;16.40;60.30;;;;;;6305412;28;20212;-62
2023/04/22 10:44:50;;;;;;;8.30;4.80;;;16.40;59.00;;;;;;6295168;28;20232;-62
2023/04/22 10:47:51;;;;;;;4.83;4.33;;;;;;;;;;6293901;28;20187;-62
2023/04/22 10:50:52;;;;;;;4.87;4.37;;;16.70;55.20;;;;;;6294377;28;20220;-62
2023/04/22 10:53:52;;;;;;;5.90;4.80;;;16.90;55.90;;;;;;6279850;28;20249;-62
2023/04/22 10:57:00;;;;;;;4.97;4.30;;;;;;;;;;6263635;28;20186;-62
2023/04/22 11:00:15;;;;;;;11.30;8.90;;;;;;;;;;6297443;28;20185;-62
2023/04/22 11:03:16;;;;;;;6.50;4.40;;;17.30;53.10;;;;;;6299963;28;20206;-62
2023/04/22 11:06:21;;;;;;;4.13;3.70;;;17.80;51.50;;;;;;6288717;28;20193;-62
2023/04/22 11:09:24;;;;;;;4.67;3.10;;;;;;;;;;6281202;28;20190;-62
2023/04/22 11:12:37;;;;;;;4.53;4.10;;;;;;;;;;6298029;28;20270;-62
2023/04/22 11:15:39;;;;;;;4.07;3.70;;;;;;;;;;6281116;28;20190;-62
2023/04/22 11:18:40;;;;;;;4.20;3.80;;;18.00;50.80;;;;;;6314465;28;20192;-62
2023/04/22 11:21:41;;;;;;;4.40;4.00;;;18.50;51.40;;;;;;6267080;28;20277;-62
2023/04/22 11:24:55;;;;;;;4.93;3.73;;;18.80;49.50;;;;;;6284677;28;20305;-62
2023/04/22 11:27:57;;;;;;;3.93;3.57;;;18.90;50.50;;;;;;6295214;28;20197;-62
2023/04/22 11:31:06;;;;;;;3.50;3.20;;;19.00;49.60;;;;;;6282390;28;20215;-62
2023/04/22 11:34:08;;;;;;;3.47;3.10;;;19.10;49.60;;;;;;6297769;28;20233;-62
2023/04/22 11:37:09;;;;;;;4.50;4.00;;;;;;;;;;6289596;28;20254;-62
2023/04/22 11:40:12;;;;;;;4.93;3.80;;;19.40;51.10;;;;;;6293583;28;20197;-62
2023/04/22 11:43:13;;;;;;;4.33;3.70;;;19.80;51.90;;;;;;6288461;28;20229;-62
2023/04/22 11:46:13;;;;;;;3.93;3.60;;;20.10;48.50;;;;;;6297208;28;20201;-62
2023/04/22 11:49:15;;;;;;;3.87;3.50;;;20.40;46.60;;;;;;6282688;28;20197;-62
2023/04/22 11:52:15;;;;;;;3.70;3.30;;;20.50;46.60;;;;;;6280042;28;20266;-62
2023/04/22 11:55:21;;;;;;;4.30;3.90;;;20.80;46.30;;;;;;6280856;28;20185;-62
2023/04/22 11:58:26;;;;;;;4.90;3.47;;;21.10;46.60;;;;;;6314903;28;20172;-62
2023/04/22 12:01:28;;;;;;;3.63;3.33;;;21.40;44.30;;;;;;6333131;28;20216;-62
2023/04/22 12:04:35;;;;;;;4.73;3.37;;;21.50;46.30;;;;;;6283127;28;20201;-62
2023/04/22 12:07:35;;;;;;;3.70;3.10;;;21.70;43.70;;;;;;6274934;28;20281;-62
2023/04/22 12:10:44;;;;;;;4.30;3.30;;;21.70;41.60;;;;;;6279469;28;20185;-62
2023/04/22 12:13:45;;;;;;;3.60;3.30;;;21.80;40.60;;;;;;6308127;28;20181;-62
2023/04/22 12:16:46;;;;;;;3.40;3.10;;;22.10;42.30;;;;;;6272782;28;20268;-62
2023/04/22 12:19:47;;;;;;;3.73;2.97;;;23.30;40.50;;;;;;6283371;28;20193;-62
2023/04/22 12:22:52;;;;;;;2.97;2.70;;;25.60;37.90;;;;;;6302173;28;20184;-62
2023/04/22 12:25:52;;;;;;;4.23;2.73;;;27.70;35.90;;;;;;6279675;28;20197;-63
2023/04/22 12:28:54;;;;;;;6.13;3.30;;;29.20;34.10;;;;;;6258592;28;20190;-63
2023/04/22 12:31:55;;;;;;;2.83;2.57;;;30.10;32.40;;;;;;6290594;28;20231;-63
2023/04/22 12:34:55;;;;;;;3.23;2.90;;;31.70;28.90;;;;;;6291078;28;20228;-63
2023/04/22 12:37:57;;;;;;;4.53;2.65;;;32.60;28.30;;;;;;6289342;28;20230;-63
2023/04/22 12:40:58;;;;;;;3.25;2.85;;;33.10;27.00;;;;;;6262554;28;20177;-63
2023/04/22 12:43:58;;;;;;;3.00;2.72;;;32.70;26.90;;;;;;6290739;28;20177;-63
2023/04/22 12:46:59;;;;;;;2.90;2.70;;;33.90;26.70;;;;;;6266959;28;20199;-63
2023/04/22 12:50:05;;;;;;;3.05;2.53;;;34.20;26.20;;;;;;6292498;28;20191;-63
2023/04/22 12:53:05;;;;;;;2.65;2.42;;;35.00;26.60;;;;;;6271021;28;20198;-63
2023/04/22 12:56:06;;;;;;;2.65;2.50;;;35.10;25.20;;;;;;6269814;28;20187;-63
2023/04/22 12:59:07;;;;;;;3.15;2.80;;;34.10;26.20;;;;;;6281478;28;20189;-63
2023/04/22 13:02:07;;;;;;;2.80;2.58;;;35.10;25.10;;;;;;6286390;28;20186;-63
2023/04/22 13:05:09;;;;;;;5.07;3.33;;;35.30;24.80;;;;;;6280426;28;20190;-63
2023/04/22 13:08:10;;;;;;;3.80;2.80;;;36.90;24.80;;;;;;6278121;28;20190;-63
2023/04/22 13:11:11;;;;;;;3.38;3.05;;;38.30;23.80;;;;;;6262800;28;20259;-63
2023/04/22 13:14:11;;;;;;;2.75;2.55;;;39.60;22.50;;;;;;6261308;28;20267;-63
2023/04/22 13:17:12;;;;;;;3.58;2.72;;;39.00;22.80;;;;;;6283503;28;20299;-63
2023/04/22 13:20:13;;;;;;;2.70;2.50;;;39.30;23.10;;;;;;6282514;28;20271;-63
2023/04/22 13:23:15;;;;;;;2.75;2.53;;;40.30;21.30;;;;;;6256672;28;20192;-63
2023/04/22 13:26:16;;;;;;;5.32;3.00;;;40.20;21.00;;;;;;6264544;28;20193;-63
2023/04/22 13:29:17;;;;;;;4.97;2.83;;;40.20;22.10;;;;;;6280593;28;20212;-63
2023/04/22 13:32:18;;;;;;;3.05;2.35;;;;;;;;;;6280116;28;20192;-63
2023/04/22 13:35:19;;;;;;;2.80;2.60;;;;;;;;;;6277135;28;20241;-63
2023/04/22 13:38:20;;;;;;;3.67;2.50;;;;;;;;;;6317092;28;20204;-61
2023/04/22 13:41:21;;;;;;;2.55;2.35;;;;;;;;;;6290387;28;20280;-61
2023/04/22 13:44:22;;;;;;;2.55;2.40;;;;;;;;;;6295925;28;20196;-61
2023/04/22 13:47:23;;;;;;;2.85;2.55;;;;;;;;;;6308335;28;20187;-61
2023/04/22 13:50:24;;;;;;;2.58;2.38;;;;;;;;;;6295947;28;20217;-61
2023/04/22 13:53:25;;;;;;;2.90;2.70;;;;;;;;;;6321697;28;20212;-61
2023/04/22 13:56:27;;;;;;;2.95;2.65;;;;;;;;;;6295049;28;20188;-61
2023/04/22 13:59:28;;;;;;;3.35;2.22;;;;;;;;;;6311359;28;20174;-61
2023/04/22 14:02:29;;;;;;;2.30;2.10;;;;;;;;;;6278828;28;20201;-61
2023/04/22 14:05:30;;;;;;;2.45;2.20;;;;;;;;;;6273510;28;20202;-61
2023/04/22 14:08:31;;;;;;;3.67;2.40;;;;;;;;;;6279693;28;20201;-61
2023/04/22 14:11:32;;;;;;;4.25;2.58;;;40.80;22.20;;;;;;6318615;28;20181;-61
2023/04/22 14:14:33;;;;;;;2.78;2.10;;;41.70;21.10;;;;;;6255788;28;20196;-61
2023/04/22 14:17:34;;;;;;;5.00;2.58;;;;;;;;;;6284513;28;20221;-61
2023/04/22 14:20:35;;;;;;;4.93;2.80;;;;;;;;;;6310041;28;20223;-61
2023/04/22 14:23:36;;;;;;;3.75;2.35;;;;;;;;;;6277762;28;20283;-61
2023/04/22 14:26:37;;;;;;;3.97;3.03;;;;;;;;;;6290695;28;20184;-61
2023/04/22 14:29:38;;;;;;;2.33;2.13;;;;;;;;;;6296080;28;20188;-61
2023/04/22 14:32:39;;;;;;;3.40;2.65;;;;;;;;;;6275260;28;21751;-61
2023/04/22 14:35:40;;;;;;;3.45;2.50;;;;;;;;;;6292935;28;20240;-60
2023/04/22 14:38:41;;;;;;;4.20;2.53;;;;;;;;;;6279676;28;20192;-60
2023/04/22 14:41:42;;;;;;;3.13;2.80;;;;;;;;;;6294497;28;20200;-60
2023/04/22 14:44:44;;;;;;;3.97;3.13;;;;;;;;;;6278478;28;20242;-63
2023/04/22 14:47:45;;;;;;;3.27;2.63;;;;;;;;;;6271449;28;20193;-63
2023/04/22 14:50:46;;;;;;;4.23;2.97;;;;;;;;;;6295857;28;20184;-62
2023/04/22 14:53:47;;;;;;;2.70;2.37;;;;;;;;;;6292302;28;20242;-62
2023/04/22 14:56:50;;;;;;;3.50;2.50;;;;;;;;;;6300905;28;20189;-62
2023/04/22 14:59:51;;;;;;;4.07;2.73;;;;;;;;;;6292723;28;20194;-63
2023/04/22 15:02:53;;;;;;;4.25;2.72;;;;;;;;;;6304099;28;20295;-62
2023/04/22 15:05:54;;;;;;;2.92;2.72;;;;;;;;;;6311876;28;20181;-63
2023/04/22 15:08:55;;;;;;;3.28;2.58;;;;;;;;;;6277784;28;20181;-63
2023/04/22 15:11:58;;;;;;;2.70;2.40;;;;;;;;;;6294265;28;20234;-63
2023/04/22 15:14:59;;;;;;;2.65;2.45;;;41.60;20.90;;;;;;6313243;28;20184;-62
2023/04/22 15:18:00;;;;;;;2.97;2.70;;;35.70;26.00;;;;;;6279588;28;20200;-63
2023/04/22 15:21:02;;;;;;;3.20;2.53;;;34.00;25.20;;;;;;6295656;28;20200;-62
2023/04/22 15:24:03;;;;;;;5.43;2.67;;;;;;;;;;6305985;28;20184;-62
2023/04/22 15:27:03;;;;;;;4.10;2.70;;;32.10;26.40;;;;;;6282204;28;20191;-63
2023/04/22 15:30:06;;;;;;;3.97;2.80;;;;;;;;;;6291767;28;20189;-62
2023/04/22 15:33:07;;;;;;;3.00;2.70;;;29.10;30.80;;;;;;6283147;28;20215;-62
2023/04/22 15:36:08;;;;;;;3.23;2.73;;;27.20;31.80;;;;;;6265667;28;20236;-62
2023/04/22 15:39:10;;;;;;;3.87;2.80;;;27.10;32.10;;;;;;6285620;28;20185;-62
2023/04/22 15:42:10;;;;;;;5.17;3.10;;;27.10;32.90;;;;;;6278763;28;20270;-62
2023/04/22 15:45:11;;;;;;;4.47;2.40;;;27.20;32.60;;;;;;6309285;28;20280;-62
2023/04/22 15:48:11;;;;;;;3.43;3.10;;;26.50;33.70;;;;;;6277154;28;20278;-62
2023/04/22 15:51:13;;;;;;;4.07;3.00;;;26.20;33.40;;;;;;6286941;28;20204;-62
2023/04/22 15:54:14;;;;;;;3.37;3.03;;;25.80;32.90;;;;;;6282155;28;20188;-62
2023/04/22 15:57:15;;;;;;;5.20;3.10;;;25.00;32.80;;;;;;6291871;28;20182;-62
2023/04/22 16:00:16;;;;;;;3.53;2.97;;;24.90;34.50;;;;;;6289282;28;20192;-62
2023/04/22 16:03:17;;;;;;;4.07;3.37;;;24.60;34.00;;;;;;6281903;28;20216;-62
2023/04/22 16:06:18;;;;;;;3.87;3.20;;;24.20;34.90;;;;;;6281285;28;20208;-62
2023/04/22 16:09:18;;;;;;;3.50;3.20;;;24.10;35.20;;;;;;6284710;28;20181;-62
2023/04/22 16:12:20;;;;;;;3.33;3.07;;;23.90;34.20;;;;;;6289056;28;20190;-62
2023/04/22 16:15:22;;;;;;;4.57;3.10;;;23.60;37.20;;;;;;6294561;28;20216;-62
2023/04/22 16:18:23;;;;;;;5.10;3.20;;;23.50;36.20;;;;;;6275779;28;20187;-62
2023/04/22 16:21:25;;;;;;;4.70;3.67;;;23.40;38.00;;;;;;6322642;28;20216;-62
2023/04/22 16:24:25;;;;;;;3.57;3.20;;;23.40;38.00;;;;;;6283048;28;20185;-62
2023/04/22 16:27:26;;;;;;;3.93;3.43;;;23.20;37.00;;;;;;6274021;28;20194;-62
2023/04/22 16:30:27;;;;;;;4.10;3.70;;;23.10;37.20;;;;;;6303824;28;20241;-62
2023/04/22 16:33:30;;;;;;;4.70;3.50;;;23.10;38.70;;;;;;6289175;28;20291;-62
2023/04/22 16:36:31;;;;;;;5.07;3.67;;;22.80;38.20;;;;;;6304136;28;20192;-63
2023/04/22 16:39:32;;;;;;;5.47;3.70;;;22.60;39.10;;;;;;6266969;28;20197;-63
2023/04/22 16:42:33;;;;;;;3.67;3.30;;;22.40;39.60;;;;;;6301628;28;20251;-63
2023/04/22 16:45:34;;;;;;;3.63;3.30;;;22.30;41.00;;;;;;6281905;28;20181;-62
2023/04/22 16:48:35;;;;;;;3.30;3.00;;;22.20;41.20;;;;;;6282701;28;20263;-62
2023/04/22 16:51:35;;;;;;;6.73;3.83;;;22.00;41.70;;;;;;6281685;28;20209;-62
2023/04/22 16:54:36;;;;;;;5.13;3.63;;;21.70;41.90;;;;;;6266731;28;20188;-62
2023/04/22 16:57:37;;;;;;;5.20;3.43;;;21.50;43.50;;;;;;6298587;28;20194;-62
2023/04/22 17:00:37;;;;;;;6.23;3.73;;;21.30;42.70;;;;;;6276567;28;20186;-62